createdAt,value
2024-05-09T00:01:18.126Z,5.53
2024-05-09T00:04:23.483Z,4.93
2024-05-09T00:07:28.644Z,5.10
2024-05-09T00:10:37.476Z,5.87
2024-05-09T00:13:44.216Z,4.73
2024-05-09T00:16:51.282Z,5.07
2024-05-09T00:19:56.569Z,5.13
2024-05-09T00:23:01.948Z,5.40
2024-05-09T00:26:07.588Z,4.70
2024-05-09T00:29:12.745Z,5.37
2024-05-09T00:32:18.232Z,6.03
2024-05-09T00:35:24.691Z,6.10
2024-05-09T00:38:30.277Z,4.63
2024-05-09T00:41:35.636Z,5.33
2024-05-09T00:44:40.903Z,6.00
2024-05-09T00:47:48.953Z,5.13
2024-05-09T00:50:55.944Z,6.00
2024-05-09T00:54:01.237Z,6.30
2024-05-09T00:57:08.073Z,5.73
2024-05-09T01:00:27.391Z,6.40
2024-05-09T01:03:40.867Z,6.73
2024-05-09T01:06:46.582Z,6.43
2024-05-09T01:09:51.829Z,6.67
2024-05-09T01:12:56.992Z,6.23
2024-05-09T01:16:02.615Z,7.00
2024-05-09T01:19:17.525Z,7.00
2024-05-09T01:22:22.970Z,5.80
2024-05-09T01:25:28.106Z,5.80
2024-05-09T01:28:33.383Z,6.27
2024-05-09T01:31:38.579Z,5.63
2024-05-09T01:34:43.742Z,6.73
2024-05-09T01:37:48.987Z,5.70
2024-05-09T01:40:54.256Z,5.83
2024-05-09T01:43:59.556Z,5.80
2024-05-09T01:47:05.535Z,6.40
2024-05-09T01:50:11.312Z,5.77
2024-05-09T01:53:17.845Z,5.83
2024-05-09T01:56:23.334Z,6.13
2024-05-09T01:59:28.801Z,5.67
2024-05-09T02:02:34.143Z,6.00
2024-05-09T02:05:39.620Z,6.57
2024-05-09T02:08:44.945Z,5.97
2024-05-09T02:11:51.670Z,5.87
2024-05-09T02:14:56.963Z,5.70
2024-05-09T02:18:02.343Z,5.90
2024-05-09T02:21:08.145Z,6.23
2024-05-09T02:24:13.404Z,6.43
2024-05-09T02:27:18.611Z,6.83
2024-05-09T02:30:31.005Z,6.50
2024-05-09T02:33:44.124Z,6.80
2024-05-09T02:36:49.594Z,6.13
2024-05-09T02:39:52.094Z,6.60
2024-05-09T02:42:57.306Z,5.67
2024-05-09T02:45:59.828Z,6.87
2024-05-09T02:49:05.162Z,6.33
2024-05-09T02:52:07.724Z,6.57
2024-05-09T02:55:12.921Z,6.50
2024-05-09T02:58:15.543Z,6.13
2024-05-09T03:01:21.149Z,6.37
2024-05-09T03:04:23.741Z,6.50
2024-05-09T03:07:29.074Z,5.50
2024-05-09T03:10:36.092Z,7.00
2024-05-09T03:13:44.977Z,5.97
2024-05-09T03:16:47.591Z,6.60
2024-05-09T03:19:53.261Z,7.27
2024-05-09T03:22:57.006Z,6.50
2024-05-09T03:26:02.458Z,6.27
2024-05-09T03:29:07.734Z,6.90
2024-05-09T03:32:14.668Z,6.70
2024-05-09T03:35:18.042Z,6.43
2024-05-09T03:38:23.317Z,6.87
2024-05-09T03:41:28.596Z,6.53
2024-05-09T03:44:34.104Z,6.23
2024-05-09T03:47:39.450Z,7.20
2024-05-09T03:50:42.604Z,7.07
2024-05-09T03:53:47.895Z,7.00
2024-05-09T03:56:54.437Z,8.17
2024-05-09T03:59:56.924Z,8.50
2024-05-09T04:03:03.222Z,8.20
2024-05-09T04:06:09.304Z,10.67
2024-05-09T04:09:11.878Z,9.07
2024-05-09T04:12:17.081Z,8.57
2024-05-09T04:15:19.784Z,10.23
2024-05-09T04:18:25.062Z,10.97
2024-05-09T04:21:30.356Z,11.03
2024-05-09T04:24:32.950Z,10.60
2024-05-09T04:27:38.131Z,10.33
2024-05-09T04:30:41.803Z,10.33
2024-05-09T04:33:47.951Z,12.27
2024-05-09T04:36:50.534Z,10.77
2024-05-09T04:39:55.806Z,13.27
2024-05-09T04:43:01.555Z,11.87
2024-05-09T04:46:06.896Z,12.27
2024-05-09T04:49:12.350Z,11.53
2024-05-09T04:52:17.507Z,9.83
2024-05-09T04:55:20.044Z,10.47
2024-05-09T04:58:25.441Z,10.47
2024-05-09T05:01:28.065Z,11.27
2024-05-09T05:04:33.575Z,10.20
2024-05-09T05:07:36.192Z,12.83
2024-05-09T05:10:41.451Z,12.57
2024-05-09T05:13:44.125Z,11.43
2024-05-09T05:16:49.516Z,11.77
2024-05-09T05:19:52.265Z,10.53
2024-05-09T05:22:57.585Z,9.97
2024-05-09T05:26:02.959Z,10.33
2024-05-09T05:29:05.669Z,9.60
2024-05-09T05:32:11.642Z,8.70
2024-05-09T05:35:14.567Z,10.07
2024-05-09T05:38:23.747Z,8.40
2024-05-09T05:41:31.516Z,10.80
2024-05-09T05:44:34.160Z,10.33
2024-05-09T05:47:40.168Z,9.93
2024-05-09T05:50:48.529Z,10.63
2024-05-09T05:53:51.308Z,11.77
2024-05-09T05:56:56.615Z,11.07
2024-05-09T06:00:02.182Z,10.23
2024-05-09T06:03:09.593Z,9.93
2024-05-09T06:06:17.127Z,10.37
2024-05-09T06:09:19.859Z,9.57
2024-05-09T06:12:25.365Z,8.80
2024-05-09T06:15:30.669Z,8.70
2024-05-09T06:18:33.651Z,8.80
2024-05-09T06:21:39.071Z,8.80
2024-05-09T06:24:44.235Z,9.13
2024-05-09T06:27:49.610Z,9.13
2024-05-09T06:30:52.120Z,9.00
2024-05-09T06:33:57.550Z,8.57
2024-05-09T06:37:00.195Z,10.17
2024-05-09T06:40:07.470Z,9.17
2024-05-09T06:43:19.188Z,9.23
2024-05-09T06:46:26.018Z,10.07
2024-05-09T06:49:32.918Z,11.03
2024-05-09T06:52:35.513Z,10.87
2024-05-09T06:55:40.846Z,9.00
2024-05-09T06:58:43.437Z,10.57
2024-05-09T07:01:48.650Z,9.67
2024-05-09T07:04:51.377Z,10.57
2024-05-09T07:07:56.677Z,9.90
2024-05-09T07:10:59.349Z,11.23
2024-05-09T07:14:04.604Z,9.07
2024-05-09T07:17:07.267Z,11.20
2024-05-09T07:20:23.006Z,11.70
2024-05-09T07:23:30.415Z,13.10
2024-05-09T07:26:35.676Z,12.50
2024-05-09T07:29:38.848Z,11.87
2024-05-09T07:32:45.249Z,13.57
2024-05-09T07:35:48.285Z,11.90
2024-05-09T07:38:53.535Z,11.37
2024-05-09T07:41:56.474Z,11.37
2024-05-09T07:45:21.033Z,11.50
2024-05-09T07:50:00.435Z,12.53
2024-05-09T07:53:21.127Z,12.30
2024-05-09T07:55:16.174Z,10.97
2024-05-09T07:58:22.547Z,12.53
2024-05-09T08:01:28.394Z,12.27
2024-05-09T08:04:31.142Z,12.57
2024-05-09T08:07:39.379Z,13.43
2024-05-09T08:10:42.222Z,11.83
2024-05-09T08:13:47.549Z,11.97
2024-05-09T08:16:50.102Z,10.73
2024-05-09T08:19:56.241Z,10.73
2024-05-09T08:22:58.910Z,11.63
2024-05-09T08:26:04.175Z,10.90
2024-05-09T08:29:09.721Z,10.03
2024-05-09T08:32:13.736Z,11.00
2024-05-09T08:35:19.034Z,9.47
2024-05-09T08:38:21.584Z,8.30
2024-05-09T08:41:28.128Z,9.87
2024-05-09T08:44:31.019Z,9.80
2024-05-09T08:47:36.265Z,9.40
2024-05-09T08:50:45.144Z,9.27
2024-05-09T08:53:51.095Z,7.80
2024-05-09T08:56:54.008Z,9.17
2024-05-09T09:00:09.907Z,8.07
2024-05-09T09:03:25.213Z,7.20
2024-05-09T09:06:29.900Z,6.77
2024-05-09T09:09:40.963Z,6.70
2024-05-09T09:12:43.645Z,6.70
2024-05-09T09:15:57.830Z,7.03
2024-05-09T09:19:03.356Z,7.03
2024-05-09T09:22:06.196Z,7.00
2024-05-09T09:25:11.495Z,6.07
2024-05-09T09:28:17.282Z,5.97
2024-05-09T09:31:20.265Z,6.03
2024-05-09T09:34:31.682Z,5.07
2024-05-09T09:37:40.760Z,6.40
2024-05-09T09:40:49.740Z,6.80
2024-05-09T09:43:58.400Z,6.43
2024-05-09T09:47:02.956Z,6.20
2024-05-09T09:50:14.435Z,5.50
2024-05-09T09:53:20.428Z,4.90
2024-05-09T09:56:30.400Z,5.83
2024-05-09T09:59:35.354Z,6.23
2024-05-09T10:02:40.581Z,6.70
2024-05-09T10:05:46.434Z,6.40
2024-05-09T10:08:53.813Z,5.60
2024-05-09T10:12:00.214Z,5.10
2024-05-09T10:15:12.273Z,5.97
2024-05-09T10:18:22.818Z,5.47
2024-05-09T10:21:27.250Z,5.47
2024-05-09T10:24:55.092Z,6.47
2024-05-09T10:27:57.889Z,5.77
2024-05-09T10:31:18.859Z,4.80
2024-05-09T10:34:26.617Z,6.20
2024-05-09T10:37:29.588Z,5.63
2024-05-09T10:40:35.051Z,4.83
2024-05-09T10:43:42.351Z,5.37
2024-05-09T10:46:51.112Z,4.53
2024-05-09T10:49:55.834Z,4.93
2024-05-09T10:53:01.053Z,5.37
2024-05-09T10:56:03.832Z,5.77
2024-05-09T10:59:09.234Z,4.63
2024-05-09T11:02:12.842Z,4.87
2024-05-09T11:05:19.100Z,5.10
2024-05-09T11:08:23.951Z,5.23
2024-05-09T11:11:30.291Z,7.33
2024-05-09T11:14:33.166Z,6.43
2024-05-09T11:17:41.619Z,6.83
2024-05-09T11:20:44.534Z,5.73
2024-05-09T11:23:50.253Z,6.73
2024-05-09T11:26:55.497Z,7.03
2024-05-09T11:29:58.753Z,8.57
2024-05-09T11:33:04.337Z,8.07
2024-05-09T11:36:08.308Z,8.03
2024-05-09T11:39:14.889Z,7.73
2024-05-09T11:42:17.694Z,8.80
2024-05-09T11:45:22.958Z,6.83
2024-05-09T11:48:26.648Z,6.23
2024-05-09T11:51:32.142Z,7.10
2024-05-09T11:54:37.464Z,8.40
2024-05-09T11:57:40.129Z,7.30
2024-05-09T12:00:46.268Z,8.20
2024-05-09T12:03:54.302Z,7.47
2024-05-09T12:06:59.802Z,8.17
2024-05-09T12:10:03.478Z,7.13
2024-05-09T12:13:10.013Z,6.20
2024-05-09T12:16:22.245Z,5.53
2024-05-09T12:19:27.867Z,5.00
2024-05-09T12:22:30.540Z,5.30
2024-05-09T12:25:35.712Z,5.20
2024-05-09T12:28:38.453Z,6.30
2024-05-09T12:31:43.653Z,6.93
2024-05-09T12:34:46.340Z,8.90
2024-05-09T12:37:51.540Z,8.53
2024-05-09T12:40:54.484Z,6.83
2024-05-09T12:43:59.795Z,5.90
2024-05-09T12:47:02.532Z,4.77
2024-05-09T12:50:13.451Z,4.90
2024-05-09T12:53:21.176Z,5.13
2024-05-09T12:56:27.158Z,4.83
2024-05-09T12:59:29.793Z,6.77
2024-05-09T13:02:35.161Z,5.50
2024-05-09T13:05:37.952Z,5.90
2024-05-09T13:08:43.509Z,6.33
2024-05-09T13:11:46.055Z,5.43
2024-05-09T13:14:51.293Z,6.53
2024-05-09T13:17:59.173Z,6.07
2024-05-09T13:21:04.238Z,6.40
2024-05-09T13:24:09.799Z,4.60
2024-05-09T13:27:12.446Z,5.93
2024-05-09T13:30:26.092Z,6.07
2024-05-09T13:33:39.015Z,5.63
2024-05-09T13:36:44.625Z,6.27
2024-05-09T13:39:47.220Z,4.60
2024-05-09T13:42:52.445Z,5.47
2024-05-09T13:45:56.437Z,5.77
2024-05-09T13:49:02.119Z,5.40
2024-05-09T13:52:07.855Z,5.83
2024-05-09T13:55:12.304Z,4.40
2024-05-09T13:58:18.107Z,5.00
2024-05-09T14:01:23.505Z,4.63
2024-05-09T14:04:26.538Z,4.63
2024-05-09T14:07:31.832Z,5.30
2024-05-09T14:10:35.635Z,4.97
2024-05-09T14:13:40.914Z,4.30
2024-05-09T14:16:46.266Z,5.33
2024-05-09T14:19:48.915Z,5.00
2024-05-09T14:22:54.204Z,4.43
2024-05-09T14:25:57.127Z,5.47
2024-05-09T14:29:02.568Z,5.27
2024-05-09T14:32:05.335Z,5.10
2024-05-09T14:35:10.909Z,4.53
2024-05-09T14:38:13.549Z,5.20
2024-05-09T14:41:18.780Z,5.30
2024-05-09T14:44:23.936Z,4.40
2024-05-09T14:47:26.514Z,4.20
2024-05-09T14:50:36.915Z,4.40
2024-05-09T14:53:41.623Z,5.33
2024-05-09T14:56:46.832Z,3.20
2024-05-09T14:59:49.341Z,3.63
2024-05-09T15:02:54.648Z,4.43
2024-05-09T15:05:59.885Z,4.30
2024-05-09T15:09:03.731Z,4.80
2024-05-09T15:12:09.508Z,3.90
2024-05-09T15:15:27.546Z,3.57
2024-05-09T15:18:33.220Z,4.27
2024-05-09T15:21:38.684Z,6.57
2024-05-09T15:24:42.105Z,6.43
2024-05-09T15:27:47.681Z,40.17
2024-05-09T15:30:50.302Z,18.97
2024-05-09T15:33:55.694Z,12.50
2024-05-09T15:37:01.726Z,4.33
2024-05-09T15:40:11.968Z,3.93
2024-05-09T15:43:20.214Z,3.87
2024-05-09T15:46:25.558Z,13.13
2024-05-09T15:49:28.337Z,4.17
2024-05-09T15:52:33.612Z,4.07
2024-05-09T15:55:36.428Z,3.60
2024-05-09T15:58:41.719Z,3.77
2024-05-09T16:01:44.962Z,3.07
2024-05-09T16:04:50.324Z,3.90
2024-05-09T16:07:53.027Z,3.60
2024-05-09T16:10:58.424Z,6.07
2024-05-09T16:14:01.041Z,4.80
2024-05-09T16:17:06.801Z,4.90
2024-05-09T16:20:15.172Z,3.57
2024-05-09T16:23:23.542Z,4.00
2024-05-09T16:26:29.199Z,3.93
2024-05-09T16:29:31.733Z,4.73
2024-05-09T16:32:37.020Z,5.67
2024-05-09T16:35:40.025Z,5.13
2024-05-09T16:38:45.601Z,6.80
2024-05-09T16:41:48.175Z,6.20
2024-05-09T16:44:53.344Z,5.47
2024-05-09T16:47:56.604Z,5.80
2024-05-09T16:51:01.850Z,5.70
2024-05-09T16:54:07.275Z,5.17
2024-05-09T16:57:09.974Z,5.43
2024-05-09T17:00:22.483Z,5.73
2024-05-09T17:03:37.022Z,5.70
2024-05-09T17:06:40.001Z,5.07
2024-05-09T17:09:45.362Z,5.30
2024-05-09T17:12:50.861Z,6.23
2024-05-09T17:15:56.215Z,6.17
2024-05-09T17:19:01.849Z,6.27
2024-05-09T17:22:05.625Z,6.00
2024-05-09T17:25:11.631Z,4.90
2024-05-09T17:28:14.903Z,4.67
2024-05-09T17:31:20.274Z,5.60
2024-05-09T17:34:23.264Z,5.47
2024-05-09T17:37:30.304Z,6.13
2024-05-09T17:40:36.122Z,5.90
2024-05-09T17:43:43.378Z,7.40
2024-05-09T17:46:46.137Z,6.83
2024-05-09T17:49:51.475Z,6.23
2024-05-09T17:52:56.783Z,6.47
2024-05-09T17:56:02.504Z,6.57
2024-05-09T17:59:06.496Z,6.33
2024-05-09T18:02:13.423Z,6.73
2024-05-09T18:05:16.044Z,6.23
2024-05-09T18:08:21.531Z,6.80
2024-05-09T18:11:28.100Z,6.03
2024-05-09T18:14:30.651Z,6.57
2024-05-09T18:17:36.004Z,6.80
2024-05-09T18:20:43.898Z,7.00
2024-05-09T18:23:52.226Z,6.23
2024-05-09T18:26:54.966Z,6.57
2024-05-09T18:30:00.196Z,6.03
2024-05-09T18:33:07.089Z,6.73
2024-05-09T18:36:13.624Z,7.07
2024-05-09T18:39:17.293Z,6.37
2024-05-09T18:42:22.493Z,6.73
2024-05-09T18:45:28.095Z,6.37
2024-05-09T18:48:33.405Z,7.43
2024-05-09T18:51:36.124Z,5.53
2024-05-09T18:54:42.050Z,7.37
2024-05-09T18:57:47.439Z,6.67
2024-05-09T19:00:52.072Z,6.07
2024-05-09T19:03:59.309Z,6.67
2024-05-09T19:07:05.456Z,6.73
2024-05-09T19:10:21.526Z,6.40
2024-05-09T19:13:28.427Z,7.50
2024-05-09T19:16:38.270Z,6.90
2024-05-09T19:19:43.828Z,7.80
2024-05-09T19:22:46.401Z,8.10
2024-05-09T19:25:51.970Z,8.10
2024-05-09T19:28:54.785Z,7.60
2024-05-09T19:32:00.093Z,8.30
2024-05-09T19:35:05.449Z,11.07
2024-05-09T19:38:10.889Z,10.50
2024-05-09T19:41:13.409Z,8.97
2024-05-09T19:44:18.742Z,8.90
2024-05-09T19:47:21.511Z,11.80
2024-05-09T19:50:36.142Z,11.13
2024-05-09T19:53:46.904Z,13.27
2024-05-09T19:56:52.265Z,10.30
2024-05-09T19:59:57.555Z,13.23
2024-05-09T20:03:03.398Z,8.73
2024-05-09T20:06:06.558Z,17.67
2024-05-09T20:09:11.956Z,19.83
2024-05-09T20:12:14.409Z,11.63
2024-05-09T20:15:19.761Z,10.07
2024-05-09T20:18:25.164Z,9.87
2024-05-09T20:21:27.831Z,9.67
2024-05-09T20:24:33.057Z,6.87
2024-05-09T20:27:35.572Z,7.73
2024-05-09T20:30:40.980Z,7.47
2024-05-09T20:33:43.690Z,7.27
2024-05-09T20:36:48.861Z,7.20
2024-05-09T20:39:54.316Z,6.80
2024-05-09T20:42:59.741Z,7.67
2024-05-09T20:46:21.629Z,10.73
2024-05-09T20:49:24.447Z,7.27
2024-05-09T20:52:29.805Z,7.93
2024-05-09T20:55:32.333Z,7.40
2024-05-09T20:58:37.621Z,12.87
2024-05-09T21:01:40.172Z,16.90
2024-05-09T21:04:45.718Z,17.87
2024-05-09T21:07:48.577Z,13.33
2024-05-09T21:10:54.205Z,10.27
2024-05-09T21:13:59.547Z,11.07
2024-05-09T21:17:02.159Z,10.57
2024-05-09T21:20:14.184Z,10.97
2024-05-09T21:23:19.728Z,8.13
2024-05-09T21:26:25.716Z,7.13
2024-05-09T21:29:28.212Z,7.77
2024-05-09T21:32:33.582Z,7.77
2024-05-09T21:35:36.231Z,7.93
2024-05-09T21:38:46.475Z,6.70
2024-05-09T21:41:48.988Z,9.93
2024-05-09T21:44:54.158Z,6.90
2024-05-09T21:47:59.527Z,7.63
2024-05-09T21:51:02.119Z,9.17
2024-05-09T21:54:07.260Z,8.20
2024-05-09T21:57:10.230Z,6.90
2024-05-09T22:00:28.525Z,8.13
2024-05-09T22:03:40.580Z,7.60
2024-05-09T22:06:45.999Z,8.37
2024-05-09T22:09:48.595Z,7.53
2024-05-09T22:12:54.197Z,7.03
2024-05-09T22:15:59.425Z,8.17
2024-05-09T22:19:02.079Z,8.20
2024-05-09T22:22:07.616Z,8.00
2024-05-09T22:25:10.366Z,8.50
2024-05-09T22:28:18.066Z,8.47
2024-05-09T22:31:20.781Z,8.43
2024-05-09T22:34:26.286Z,8.43
2024-05-09T22:37:29.479Z,8.10
2024-05-09T22:40:45.359Z,8.57
2024-05-09T22:43:53.832Z,8.37
2024-05-09T22:46:56.425Z,9.20
2024-05-09T22:50:01.677Z,7.87
2024-05-09T22:53:04.299Z,8.70
2024-05-09T22:56:10.079Z,9.07
2024-05-09T22:59:13.232Z,8.37
2024-05-09T23:02:18.437Z,8.83
2024-05-09T23:05:21.112Z,9.77
2024-05-09T23:08:26.314Z,8.00
2024-05-09T23:11:28.962Z,9.07
2024-05-09T23:14:34.839Z,9.20
2024-05-09T23:17:37.626Z,8.63
2024-05-09T23:20:42.798Z,8.90
2024-05-09T23:23:45.359Z,10.10
2024-05-09T23:26:50.546Z,10.23
2024-05-09T23:29:53.526Z,8.77
2024-05-09T23:32:58.756Z,9.03
2024-05-09T23:36:01.333Z,9.50
2024-05-09T23:39:06.623Z,9.13
2024-05-09T23:42:11.833Z,9.67
2024-05-09T23:45:14.366Z,8.97
2024-05-09T23:48:19.689Z,9.77
2024-05-09T23:51:24.863Z,9.67
2024-05-09T23:54:27.456Z,9.57
2024-05-09T23:57:32.765Z,10.57
